Dresser, Indiana
Current Conditions -  °F | °C
As of 3:53 PM on Tuesday 25 Nov 2014 (Local Time) from KHUF Reporting Station
Overcast Overcast  
Wind Chill: 23°   Ceiling: 2000
Heat Index: 30°   Visibility: 10mi
Dew Point: 23°   Wind: 7mph
Humidity: 75%   Direction: 330°NNW
Pressure: 30.18"   Gusts: NA
Location:  39.5107°N, 87.4772°W
Report Text: KHUF 252053Z 33006KT 10SM OVC020 M01/M05 A3018 RMK AO2 SLP224 T10111050 53001
Loading
Personal Weather Stations






























Interactive Weather Map New forecast layout! Learn more

10-Day Weather Forecast

Advertisements
Track Severe Weather on mobile